La Mesa, California
Current Conditions -  °F | °C
As of 11:35 AM on Thursday 23 Oct 2014 (Local Time) from KSEE Reporting Station
Clear Clear  
Wind Chill: 90°   Ceiling: Unl
Heat Index: 90°   Visibility: NA
Dew Point: 43°   Wind: 0mph
Humidity: 20%   Direction: NA
Pressure: 30"   Gusts: NA
Location:  32.77°N, 117.02°W
Report Text: KSEE 231835Z AUTO 00000KT CLR 32/06 A3000 RMK AO2
Loading
Personal Weather Stations






























Interactive Weather Map New forecast layout! Learn more

10-Day Weather Forecast

Advertisements
Track Severe Weather on mobile